Time;durP1;ratioP1;P1;durP2;ratioP2;P2;SDS_P1;SDS_P2;PMS_P1;PMS_P2;Temp;Humidity;BMP_temperature;BMP_pressure;BME280_temperature;BME280_humidity;BME280_pressure;Samples;Min_cycle;Max_cycle;Signal;HPM_P1;HPM_P2
2024/02/07 00:00:12;;;;;;;2.60;1.48;;;;;;;-141.50;100.00;63355.56;5118233;28;20098;-80
2024/02/07 00:02:39;;;;;;;9.43;1.95;;;;;;;-141.50;100.00;63355.56;5120608;28;20055;-82
2024/02/07 00:05:06;;;;;;;4.20;2.05;;;;;;;-141.50;100.00;63355.56;5090231;28;20067;-81
2024/02/07 00:07:33;;;;;;;10.80;1.70;;;;;;;-141.50;100.00;63355.56;5113421;28;20135;-79
2024/02/07 00:10:00;;;;;;;6.18;2.00;;;;;;;-141.50;100.00;63355.56;5112023;28;20054;-81
2024/02/07 00:12:28;;;;;;;10.45;2.28;;;;;;;-141.50;100.00;63355.56;5120764;28;20103;-81
2024/02/07 00:14:54;;;;;;;6.45;1.75;;;;;;;-141.50;100.00;63355.56;5098032;28;20066;-79
2024/02/07 00:17:21;;;;;;;6.55;1.85;;;;;;;-141.50;100.00;63355.56;5119875;28;20067;-78
2024/02/07 00:19:50;;;;;;;6.57;1.70;;;;;;;-141.50;100.00;63355.56;5104244;28;20083;-81
2024/02/07 00:22:17;;;;;;;5.55;2.13;;;;;;;-141.50;100.00;63355.56;5102277;28;20056;-80
2024/02/07 00:24:44;;;;;;;4.82;1.98;;;;;;;-141.50;100.00;63355.56;5097191;28;20040;-81
2024/02/07 00:27:11;;;;;;;8.52;2.00;;;;;;;-141.50;100.00;63355.56;5096573;28;20051;-81
2024/02/07 00:29:37;;;;;;;5.00;2.00;;;;;;;-141.50;100.00;63355.56;5071588;28;20044;-80
2024/02/07 00:32:04;;;;;;;6.55;2.17;;;;;;;-141.50;100.00;63355.56;5095187;28;20060;-80
2024/02/07 00:34:33;;;;;;;4.78;2.08;;;;;;;-141.50;100.00;63355.56;5097969;28;20079;-79
2024/02/07 00:37:00;;;;;;;5.57;2.13;;;;;;;-141.50;100.00;63355.56;5090401;28;20124;-79
2024/02/07 00:39:27;;;;;;;7.72;2.00;;;;;;;-141.50;100.00;63355.56;5083260;28;20085;-79
2024/02/07 00:41:53;;;;;;;4.32;1.67;;;;;;;-141.50;100.00;63355.56;5088630;28;20727;-78
2024/02/07 00:44:20;;;;;;;8.10;2.10;;;;;;;-141.50;100.00;63355.56;5092326;28;20052;-77
2024/02/07 00:46:47;;;;;;;5.55;2.28;;;;;;;-141.50;100.00;63355.56;5091935;28;20470;-79
2024/02/07 00:49:14;;;;;;;3.97;2.17;;;;;;;-141.50;100.00;63355.56;5091982;28;20637;-80
2024/02/07 00:51:41;;;;;;;4.25;2.20;;;;;;;-141.50;100.00;63355.56;5092705;28;20047;-80
2024/02/07 00:54:08;;;;;;;7.20;2.42;;;;;;;-141.50;100.00;63355.56;5091361;28;20044;-78
2024/02/07 00:56:37;;;;;;;10.52;2.45;;;;;;;-141.50;100.00;63355.56;5096080;28;20101;-79
2024/02/07 00:59:04;;;;;;;8.48;2.05;;;;;;;-141.50;100.00;63355.56;5090538;28;20043;-78
2024/02/07 01:01:31;;;;;;;8.20;2.35;;;;;;;-141.50;100.00;63355.56;5094864;28;20043;-77
2024/02/07 01:03:58;;;;;;;9.20;2.50;;;;;;;-141.50;100.00;63355.56;5094249;28;20043;-79
2024/02/07 01:06:27;;;;;;;4.80;2.22;;;;;;;-141.50;100.00;63355.56;5082225;28;20051;-78
2024/02/07 01:08:54;;;;;;;7.80;2.03;;;;;;;-141.50;100.00;63355.56;5087310;28;20755;-79
2024/02/07 01:11:20;;;;;;;6.57;2.28;;;;;;;-141.50;100.00;63355.56;5089207;28;20067;-79
2024/02/07 01:13:47;;;;;;;8.30;1.92;;;;;;;-141.50;100.00;63355.56;5093061;28;20048;-79
2024/02/07 01:16:15;;;;;;;5.72;2.08;;;;;;;-141.50;100.00;63355.56;5091777;28;20051;-79
2024/02/07 01:18:43;;;;;;;6.78;2.10;;;;;;;-141.50;100.00;63355.56;5094495;28;20043;-79
2024/02/07 01:21:10;;;;;;;5.13;2.28;;;;;;;-141.50;100.00;63355.56;5090958;28;20392;-80
2024/02/07 01:23:38;;;;;;;6.20;2.00;;;;;;;-141.50;100.00;63355.56;5092871;28;20070;-78
2024/02/07 01:26:06;;;;;;;5.47;1.80;;;;;;;-141.50;100.00;63355.56;5090613;28;20036;-79
2024/02/07 01:28:33;;;;;;;5.80;1.80;;;;;;;-141.50;100.00;63355.56;5092970;28;20045;-80
2024/02/07 01:31:00;;;;;;;5.78;1.83;;;;;;;-141.50;100.00;63355.56;5093331;28;20048;-80
2024/02/07 01:33:29;;;;;;;3.90;2.03;;;;;;;-141.50;100.00;63355.56;5090311;28;20040;-79
2024/02/07 01:35:57;;;;;;;6.70;2.35;;;;;;;-141.50;100.00;63355.56;5094134;28;20044;-78
2024/02/07 01:38:24;;;;;;;9.65;2.50;;;;;;;-141.50;100.00;63355.56;5111770;28;20989;-81
2024/02/07 01:40:50;;;;;;;9.65;2.33;;;;;;;-141.50;100.00;63355.56;5091033;28;20056;-80
2024/02/07 01:43:17;;;;;;;9.57;2.65;;;;;;;-141.50;100.00;63355.56;5093782;28;20033;-79
2024/02/07 01:45:44;;;;;;;8.00;2.17;;;;;;;-141.50;100.00;63355.56;5092798;28;20040;-78
2024/02/07 01:48:11;;;;;;;4.68;1.55;;;;;;;-141.50;100.00;63355.56;5090096;28;20044;-79
2024/02/07 01:50:40;;;;;;;11.77;1.92;;;;;;;-141.50;100.00;63355.56;5073512;28;20045;-80
2024/02/07 01:53:10;;;;;;;6.93;1.85;;;;;;;-141.50;100.00;63355.56;5083323;28;20047;-79
2024/02/07 01:55:38;;;;;;;7.10;2.00;;;;;;;-141.50;100.00;63355.56;5096442;28;20052;-81
2024/02/07 01:58:08;;;;;;;5.40;2.40;;;;;;;-141.50;100.00;63355.56;5103832;28;20040;-80
2024/02/07 02:00:36;;;;;;;6.90;1.98;;;;;;;-141.50;100.00;63355.56;5103428;28;20087;-78
2024/02/07 02:03:03;;;;;;;3.83;1.90;;;;;;;-141.50;100.00;63355.56;5090374;28;20059;-81
2024/02/07 02:05:30;;;;;;;7.60;2.20;;;;;;;-141.50;100.00;63355.56;5111866;28;20043;-80
2024/02/07 02:07:59;;;;;;;6.28;2.15;;;;;;;-141.50;100.00;63355.56;5093816;28;20035;-77
2024/02/07 02:10:26;;;;;;;6.22;2.10;;;;;;;-141.50;100.00;63355.56;5111150;28;20050;-77
2024/02/07 02:12:54;;;;;;;6.55;2.42;;;;;;;-141.50;100.00;63355.56;5113665;28;20051;-78
2024/02/07 02:15:22;;;;;;;3.67;1.70;;;;;;;-141.50;100.00;63355.56;5111233;28;20043;-80
2024/02/07 02:17:53;;;;;;;5.93;1.88;;;;;;;-141.50;100.00;63355.56;5073687;28;20040;-79
2024/02/07 02:20:23;;;;;;;5.03;2.05;;;;;;;-141.50;100.00;63355.56;5092274;28;20498;-80
2024/02/07 02:22:58;;;;;;;8.95;2.28;;;;;;;-141.50;100.00;63355.56;5087621;28;20036;-80
2024/02/07 02:25:43;;;;;;;4.95;2.05;;;;;;;-141.50;100.00;63355.56;5103336;28;20055;-79
2024/02/07 02:28:23;;;;;;;7.10;1.90;;;;;;;-141.50;100.00;63355.56;5092504;28;20059;-81
2024/02/07 02:30:57;;;;;;;5.55;2.17;;;;;;;-141.50;100.00;63355.56;5064004;28;1168232;-79
2024/02/07 02:33:28;;;;;;;7.43;2.30;;;;;;;-141.50;100.00;63355.56;5089408;28;20068;-80
2024/02/07 02:35:58;;;;;;;9.18;2.65;;;;;;;-141.50;100.00;63355.56;5109888;28;20039;-79
2024/02/07 02:38:25;;;;;;;4.65;2.05;;;;;;;-141.50;100.00;63355.56;5094173;28;20071;-80
2024/02/07 02:40:54;;;;;;;7.70;1.95;;;;;;;-141.50;100.00;63355.56;5114769;28;20753;-80
2024/02/07 02:43:25;;;;;;;7.00;2.17;;;;;;;-141.50;100.00;63355.56;5092475;28;20044;-78
2024/02/07 02:45:52;;;;;;;4.85;2.17;;;;;;;-141.50;100.00;63355.56;5088449;28;20060;-80
2024/02/07 02:48:18;;;;;;;5.40;1.85;;;;;;;-141.50;100.00;63355.56;5111243;28;20056;-80
2024/02/07 02:50:46;;;;;;;8.38;1.92;;;;;;;-141.50;100.00;63355.56;5108680;28;20087;-79
2024/02/07 02:53:13;;;;;;;4.32;1.77;;;;;;;-141.50;100.00;63355.56;5096995;28;20056;-79
2024/02/07 02:55:40;;;;;;;6.07;1.90;;;;;;;-141.50;100.00;63355.56;5101832;28;20083;-80
2024/02/07 02:58:07;;;;;;;7.07;1.95;;;;;;;-141.50;100.00;63355.56;5070110;28;20480;-77
2024/02/07 03:00:34;;;;;;;6.53;1.98;;;;;;;-141.50;100.00;63355.56;5104372;28;20051;-80
2024/02/07 03:03:02;;;;;;;6.63;2.03;;;;;;;-141.50;100.00;63355.56;5104642;28;20127;-80
2024/02/07 03:10:39;;;;;;;3.45;2.00;;;;;;;-141.50;100.00;63355.56;5084992;28;20056;-78
2024/02/07 03:13:06;;;;;;;4.68;1.85;;;;;;;-141.50;100.00;63355.56;5072011;28;20060;-80
2024/02/07 03:15:33;;;;;;;7.80;2.47;;;;;;;-141.50;100.00;63355.56;5076654;28;20032;-80
2024/02/07 03:18:00;;;;;;;7.00;2.35;;;;;;;-141.50;100.00;63355.56;5090946;28;20056;-80
2024/02/07 03:20:27;;;;;;;7.13;2.15;;;;;;;-141.50;100.00;63355.56;5109544;28;20055;-78
2024/02/07 03:22:56;;;;;;;6.32;2.13;;;;;;;-141.50;100.00;63355.56;5081180;28;20056;-78
2024/02/07 03:25:23;;;;;;;6.80;1.90;;;;;;;-141.50;100.00;63355.56;5093066;28;20453;-80
2024/02/07 03:27:52;;;;;;;4.75;1.80;;;;;;;-141.50;100.00;63355.56;5093020;28;20082;-79
2024/02/07 03:30:23;;;;;;;6.03;2.05;;;;;;;-141.50;100.00;63355.56;5108421;28;20058;-80
2024/02/07 03:32:51;;;;;;;6.20;1.95;;;;;;;-141.50;100.00;63355.56;5087970;28;20062;-78
2024/02/07 03:35:18;;;;;;;3.88;1.90;;;;;;;-141.50;100.00;63355.56;5094032;28;20048;-81
2024/02/07 03:37:45;;;;;;;7.55;2.28;;;;;;;-141.50;100.00;63355.56;5076121;28;20074;-82
2024/02/07 03:40:13;;;;;;;6.50;2.20;;;;;;;-141.50;100.00;63355.56;5093218;28;20086;-79
2024/02/07 03:42:46;;;;;;;4.57;1.67;;;;;;;-141.50;100.00;63355.56;5093788;28;20459;-79
2024/02/07 03:45:16;;;;;;;6.95;2.33;;;;;;;-141.50;100.00;63355.56;5115023;28;20055;-79
2024/02/07 03:47:45;;;;;;;3.83;1.70;;;;;;;-141.50;100.00;63355.56;5114672;28;20119;-80
2024/02/07 03:50:16;;;;;;;8.57;2.00;;;;;;;-141.50;100.00;63355.56;5118501;28;20076;-82
2024/02/07 03:52:48;;;;;;;4.68;1.95;;;;;;;-141.50;100.00;63355.56;5118981;28;20052;-80
2024/02/07 03:55:15;;;;;;;8.63;2.08;;;;;;;-141.50;100.00;63355.56;5111367;28;20096;-80
2024/02/07 03:57:42;;;;;;;4.72;2.00;;;;;;;-141.50;100.00;63355.56;5108754;28;20545;-78
2024/02/07 04:00:13;;;;;;;7.28;2.15;;;;;;;-141.50;100.00;63355.56;5083586;28;20105;-80
2024/02/07 04:02:41;;;;;;;5.53;1.98;;;;;;;-141.50;100.00;63355.56;5105651;28;20040;-81
2024/02/07 04:05:08;;;;;;;4.05;1.90;;;;;;;-141.50;100.00;63355.56;5082525;28;20048;-80
2024/02/07 04:07:36;;;;;;;6.22;2.25;;;;;;;-141.50;100.00;63355.56;5111423;28;20044;-79
2024/02/07 04:10:05;;;;;;;7.97;1.90;;;;;;;-141.50;100.00;63355.56;5111336;28;20051;-77
2024/02/07 05:15:38;;;;;;;6.07;2.60;;;;;;;-141.50;100.00;63355.56;5110196;28;20286;-80
2024/02/07 05:18:05;;;;;;;5.40;2.08;;;;;;;-141.50;100.00;63355.56;5113998;28;20048;-78
2024/02/07 05:20:32;;;;;;;5.55;2.42;;;;;;;-141.50;100.00;63355.56;5096033;28;20061;-81
2024/02/07 05:22:59;;;;;;;8.02;2.25;;;;;;;-141.50;100.00;63355.56;5097452;28;20055;-82
2024/02/07 05:25:26;;;;;;;9.98;2.40;;;;;;;-141.50;100.00;63355.56;5114448;28;20040;-80
2024/02/07 05:27:53;;;;;;;5.40;2.33;;;;;;;-141.50;100.00;63355.56;5098257;28;20069;-79
2024/02/07 05:30:20;;;;;;;4.65;1.92;;;;;;;-141.50;100.00;63355.56;5113253;28;20123;-80
2024/02/07 05:32:46;;;;;;;6.45;2.00;;;;;;;-141.50;100.00;63355.56;5093554;28;20055;-78
2024/02/07 05:35:13;;;;;;;3.33;1.77;;;;;;;-141.50;100.00;63355.56;5112817;28;20075;-80
2024/02/07 05:37:40;;;;;;;5.25;1.85;;;;;;;-141.50;100.00;63355.56;5099778;28;20528;-79
2024/02/07 05:40:07;;;;;;;6.72;2.15;;;;;;;-141.50;100.00;63355.56;5096648;28;20086;-80
2024/02/07 05:42:34;;;;;;;4.65;2.17;;;;;;;-141.50;100.00;63355.56;5115112;28;20046;-79
2024/02/07 05:45:01;;;;;;;9.98;2.55;;;;;;;-141.50;100.00;63355.56;5094845;28;20139;-79
2024/02/07 05:47:28;;;;;;;9.18;2.30;;;;;;;-141.50;100.00;63355.56;5093474;28;20040;-79
2024/02/07 05:49:54;;;;;;;4.78;2.08;;;;;;;-141.50;100.00;63355.56;5100636;28;20055;-79
2024/02/07 05:52:23;;;;;;;6.20;2.03;;;;;;;-141.50;100.00;63355.56;5089818;28;20096;-81
2024/02/07 05:54:50;;;;;;;5.63;2.45;;;;;;;-141.50;100.00;63355.56;5086205;28;20060;-80
2024/02/07 05:57:17;;;;;;;4.38;2.40;;;;;;;-141.50;100.00;63355.56;5092270;28;20069;-80
2024/02/07 05:59:43;;;;;;;6.30;2.20;;;;;;;-141.50;100.00;63355.56;5112237;28;20502;-80
2024/02/07 06:02:11;;;;;;;7.30;2.63;;;;;;;-141.50;100.00;63355.56;5106479;28;20494;-81
2024/02/07 06:04:39;;;;;;;5.82;2.10;;;;;;;-141.50;100.00;63355.56;5089410;28;20468;-81
2024/02/07 06:07:08;;;;;;;8.57;2.72;;;;;;;-141.50;100.00;63355.56;5089962;28;20112;-80
2024/02/07 06:09:35;;;;;;;9.70;2.65;;;;;;;-141.50;100.00;63355.56;5105748;28;20051;-80
2024/02/07 06:12:01;;;;;;;6.63;2.63;;;;;;;-141.50;100.00;63355.56;5106082;28;20059;-80
2024/02/07 06:14:30;;;;;;;7.82;2.30;;;;;;;-141.50;100.00;63355.56;5084442;28;20052;-80
2024/02/07 06:16:57;;;;;;;6.88;2.42;;;;;;;-141.50;100.00;63355.56;5099348;28;20509;-79
2024/02/07 06:19:24;;;;;;;5.75;2.05;;;;;;;-141.50;100.00;63355.56;5116278;28;20055;-82
2024/02/07 06:21:52;;;;;;;9.32;2.30;;;;;;;-141.50;100.00;63355.56;5114028;28;20055;-79
2024/02/07 06:24:18;;;;;;;5.22;2.60;;;;;;;-141.50;100.00;63355.56;5111835;28;20051;-81
2024/02/07 06:26:45;;;;;;;12.43;2.20;;;;;;;-141.50;100.00;63355.56;5092620;28;20064;-81
2024/02/07 06:29:12;;;;;;;6.50;2.45;;;;;;;-141.50;100.00;63355.56;5111445;28;20519;-82
2024/02/07 06:31:39;;;;;;;6.78;2.85;;;;;;;-141.50;100.00;63355.56;5113004;28;20051;-81
2024/02/07 06:34:05;;;;;;;6.75;2.38;;;;;;;-141.50;100.00;63355.56;5113170;28;20048;-80
2024/02/07 06:36:32;;;;;;;7.60;2.00;;;;;;;-141.50;100.00;63355.56;5090083;28;20043;-81
2024/02/07 06:38:59;;;;;;;5.43;2.00;;;;;;;-141.50;100.00;63355.56;5114626;28;20048;-81
2024/02/07 06:41:26;;;;;;;5.63;2.20;;;;;;;-141.50;100.00;63355.56;5112877;28;20055;-80
2024/02/07 06:43:53;;;;;;;12.07;3.05;;;;;;;-141.50;100.00;63355.56;5108774;28;20082;-81
2024/02/07 06:46:19;;;;;;;6.43;3.03;;;;;;;-141.50;100.00;63355.56;5075197;28;20073;-79
2024/02/07 06:48:46;;;;;;;6.07;2.50;;;;;;;-141.50;100.00;63355.56;5093401;28;20060;-79
2024/02/07 06:51:13;;;;;;;7.63;2.60;;;;;;;-141.50;100.00;63355.56;5086073;28;20059;-81
2024/02/07 06:53:40;;;;;;;8.30;2.28;;;;;;;-141.50;100.00;63355.56;5082116;28;20104;-79
2024/02/07 06:56:06;;;;;;;4.68;2.03;;;;;;;-141.50;100.00;63355.56;5098224;28;20055;-79
2024/02/07 06:58:33;;;;;;;5.68;2.03;;;;;;;-141.50;100.00;63355.56;5082778;28;20036;-80
2024/02/07 07:01:00;;;;;;;7.43;2.10;;;;;;;-141.50;100.00;63355.56;5105704;28;20537;-80
2024/02/07 07:03:27;;;;;;;5.32;1.88;;;;;;;-141.50;100.00;63355.56;5121011;28;20047;-79
2024/02/07 07:05:54;;;;;;;4.30;2.03;;;;;;;-141.50;100.00;63355.56;5123034;28;20055;-82
2024/02/07 07:08:20;;;;;;;6.50;2.50;;;;;;;-141.50;100.00;63355.56;5116137;28;20047;-83
2024/02/07 07:10:47;;;;;;;5.28;2.30;;;;;;;-141.50;100.00;63355.56;5092674;28;20460;-82
2024/02/07 07:13:14;;;;;;;7.35;1.90;;;;;;;-141.50;100.00;63355.56;5075458;28;20064;-84
2024/02/07 07:15:41;;;;;;;3.60;2.00;;;;;;;-141.50;100.00;63355.56;5087821;28;20048;-84
2024/02/07 07:18:08;;;;;;;4.82;1.70;;;;;;;-141.50;100.00;63355.56;5090750;28;20056;-83
2024/02/07 07:20:35;;;;;;;7.00;2.15;;;;;;;-141.50;100.00;63355.56;5095487;28;20181;-83
2024/02/07 07:23:02;;;;;;;6.38;2.08;;;;;;;-141.50;100.00;63355.56;5088408;28;20119;-82
2024/02/07 07:25:44;;;;;;;6.13;2.28;;;;;;;-141.50;100.00;63355.56;5066746;28;20071;-81
2024/02/07 07:28:11;;;;;;;7.63;1.92;;;;;;;-141.50;100.00;63355.56;5072278;28;20055;-81
2024/02/07 07:30:39;;;;;;;4.43;2.20;;;;;;;-141.50;100.00;63355.56;5075332;28;20054;-81
2024/02/07 07:33:05;;;;;;;7.28;1.60;;;;;;;-141.50;100.00;63355.56;5113988;27;20058;-82
2024/02/07 07:35:32;;;;;;;7.63;2.20;;;;;;;-141.50;100.00;63355.56;5110719;28;20123;-80
2024/02/07 07:38:03;;;;;;;9.00;2.15;;;;;;;-141.50;100.00;63355.56;5090939;28;20070;-81
2024/02/07 07:40:30;;;;;;;4.60;1.55;;;;;;;-141.50;100.00;63355.56;5109592;27;20039;-80
2024/02/07 07:42:57;;;;;;;6.30;1.77;;;;;;;-141.50;100.00;63355.56;5116482;28;20138;-80
2024/02/07 07:45:24;;;;;;;3.03;1.50;;;;;;;-141.50;100.00;63355.56;5093717;28;20273;-82
2024/02/07 07:47:51;;;;;;;3.83;1.55;;;;;;;-141.50;100.00;63355.56;5119502;27;20060;-81
2024/02/07 07:50:17;;;;;;;5.57;1.60;;;;;;;-141.50;100.00;63355.56;5072538;28;20064;-81
2024/02/07 07:52:44;;;;;;;2.35;1.35;;;;;;;-141.50;100.00;63355.56;5114223;27;20127;-81
2024/02/07 07:55:11;;;;;;;5.85;1.83;;;;;;;-141.50;100.00;63355.56;5112287;27;20090;-79
2024/02/07 07:57:38;;;;;;;8.60;1.73;;;;;;;-141.50;100.00;63355.56;5114255;28;20131;-81
2024/02/07 08:00:05;;;;;;;4.50;1.50;;;;;;;-141.50;100.00;63355.56;5086379;28;20243;-77
2024/02/07 08:02:37;;;;;;;3.88;1.40;;;;;;;-141.50;100.00;63355.56;5102794;28;20515;-80
2024/02/07 08:05:04;;;;;;;2.88;1.50;;;;;;;-141.50;100.00;63355.56;5092894;28;20054;-82
2024/02/07 08:07:31;;;;;;;7.50;1.73;;;;;;;-141.50;100.00;63355.56;5090515;28;20097;-81
2024/02/07 08:09:58;;;;;;;4.57;1.50;;;;;;;-141.50;100.00;63355.56;5113927;28;20466;-81
2024/02/07 08:12:24;;;;;;;5.18;1.67;;;;;;;-141.50;100.00;63355.56;5111456;28;20059;-79
2024/02/07 08:14:51;;;;;;;3.95;1.75;;;;;;;-141.50;100.00;63355.56;5109075;28;20158;-79
2024/02/07 08:17:19;;;;;;;1.70;1.05;;;;;;;-141.50;100.00;63355.56;5108212;28;20059;-81
2024/02/07 08:19:46;;;;;;;2.28;0.77;;;;;;;-141.50;100.00;63355.56;5103567;28;20410;-81
2024/02/07 08:22:13;;;;;;;1.05;0.60;;;;;;;-141.50;100.00;63355.56;5109442;27;20107;-80
2024/02/07 08:24:40;;;;;;;2.10;0.38;;;;;;;-141.50;100.00;63355.56;5088717;28;20048;-80
2024/02/07 08:27:07;;;;;;;1.23;0.50;;;;;;;-141.50;100.00;63355.56;5090133;28;20442;-81
2024/02/07 08:29:33;;;;;;;2.10;0.50;;;;;;;-141.50;100.00;63355.56;5096893;27;20047;-80
2024/02/07 08:32:00;;;;;;;0.73;0.40;;;;;;;-141.50;100.00;63355.56;5087124;28;20051;-81
2024/02/07 08:34:28;;;;;;;1.13;0.55;;;;;;;-141.50;100.00;63355.56;5108631;28;20050;-79
2024/02/07 08:36:55;;;;;;;0.77;0.52;;;;;;;-141.50;100.00;63355.56;5112422;28;20059;-79
2024/02/07 08:39:22;;;;;;;0.88;0.57;;;;;;;-141.50;100.00;63355.56;5088747;28;20097;-79
2024/02/07 08:41:48;;;;;;;1.13;0.55;;;;;;;-141.50;100.00;63355.56;5073338;28;20086;-79
2024/02/07 08:44:15;;;;;;;1.63;0.80;;;;;;;-141.50;100.00;63355.56;5115457;27;20178;-80
2024/02/07 08:46:43;;;;;;;1.35;0.50;;;;;;;-141.50;100.00;63355.56;5116666;28;20048;-79
2024/02/07 08:49:10;;;;;;;4.85;0.60;;;;;;;-141.50;100.00;63355.56;5101084;28;20139;-79
2024/02/07 08:51:37;;;;;;;2.92;0.57;;;;;;;-141.50;100.00;63355.56;5117216;27;20047;-80
2024/02/07 08:54:04;;;;;;;2.17;0.77;;;;;;;-141.50;100.00;63355.56;5097189;28;20101;-78
2024/02/07 08:56:31;;;;;;;2.55;0.70;;;;;;;-141.50;100.00;63355.56;5110671;28;20579;-80
2024/02/07 08:58:58;;;;;;;3.28;0.70;;;;;;;-141.50;100.00;63355.56;5114218;28;20044;-78
2024/02/07 09:01:24;;;;;;;3.90;0.50;;;;;;;-141.50;100.00;63355.56;5114021;28;20047;-80
2024/02/07 09:03:51;;;;;;;5.72;0.50;;;;;;;-141.50;100.00;63355.56;5107878;28;20056;-81
2024/02/07 09:06:18;;;;;;;2.80;0.57;;;;;;;-141.50;100.00;63355.56;5114555;28;20052;-80
2024/02/07 09:08:46;;;;;;;1.10;0.52;;;;;;;-141.50;100.00;63355.56;5097114;28;20067;-81
2024/02/07 09:11:12;;;;;;;1.20;0.43;;;;;;;-141.50;100.00;63355.56;5112819;28;20078;-78
2024/02/07 09:13:39;;;;;;;0.52;0.40;;;;;;;-141.50;100.00;63355.56;5121740;28;20063;-77
2024/02/07 09:16:06;;;;;;;0.77;0.50;;;;;;;-141.50;100.00;63355.56;5102898;28;20414;-81
2024/02/07 09:18:36;;;;;;;0.82;0.38;;;;;;;-141.50;100.00;63355.56;5109943;28;20100;-79
2024/02/07 09:21:03;;;;;;;1.40;0.50;;;;;;;-141.50;100.00;63355.56;5097869;28;20117;-81
2024/02/07 09:23:31;;;;;;;1.67;0.45;;;;;;;-141.50;100.00;63355.56;5113457;28;20052;-81
2024/02/07 09:25:57;;;;;;;3.58;0.70;;;;;;;-141.50;100.00;63355.56;5116253;28;20067;-80
2024/02/07 09:28:25;;;;;;;2.20;0.60;;;;;;;-141.50;100.00;63355.56;5102351;28;20051;-80
2024/02/07 09:30:52;;;;;;;2.47;0.63;;;;;;;-141.50;100.00;63355.56;5118937;28;20059;-77
2024/02/07 09:33:19;;;;;;;2.25;0.40;;;;;;;-141.50;100.00;63355.56;5108192;28;20055;-81
2024/02/07 09:35:46;;;;;;;1.40;0.70;;;;;;;-141.50;100.00;63355.56;5097702;28;20063;-80
2024/02/07 09:38:13;;;;;;;6.05;0.85;;;;;;;-141.50;100.00;63355.56;5114527;28;20463;-78
2024/02/07 09:40:42;;;;;;;2.58;0.98;;;;;;;-141.50;100.00;63355.56;5114480;28;20522;-79
2024/02/07 09:43:09;;;;;;;1.00;0.60;;;;;;;-141.50;100.00;63355.56;5103753;28;20055;-79
2024/02/07 09:45:38;;;;;;;0.80;0.60;;;;;;;-141.50;100.00;63355.56;5114063;28;20139;-78
2024/02/07 09:48:21;;;;;;;1.42;0.70;;;;;;;-141.50;100.00;63355.56;5095145;28;20055;-79
2024/02/07 09:50:50;;;;;;;1.67;0.63;;;;;;;-141.50;100.00;63355.56;5097419;28;20728;-79
2024/02/07 09:53:19;;;;;;;1.58;0.90;;;;;;;-141.50;100.00;63355.56;5115343;28;20051;-80
2024/02/07 09:55:48;;;;;;;1.85;0.70;;;;;;;-141.50;100.00;63355.56;5109505;28;20047;-79
2024/02/07 09:58:15;;;;;;;1.52;0.80;;;;;;;-141.50;100.00;63355.56;5109894;28;20083;-82
2024/02/07 10:00:42;;;;;;;1.73;0.60;;;;;;;-141.50;100.00;63355.56;5095960;28;20108;-81
2024/02/07 10:03:13;;;;;;;1.35;0.70;;;;;;;-141.50;100.00;63355.56;5106840;28;20056;-81
2024/02/07 10:05:48;;;;;;;1.67;0.70;;;;;;;-141.50;100.00;63355.56;5081013;28;20058;-80
2024/02/07 10:08:16;;;;;;;1.38;0.90;;;;;;;-141.50;100.00;63355.56;5093462;28;20067;-80
2024/02/07 10:10:46;;;;;;;1.40;0.90;;;;;;;-141.50;100.00;63355.56;5114515;28;20074;-81
2024/02/07 10:13:17;;;;;;;1.10;0.80;;;;;;;-141.50;100.00;63355.56;5109582;28;20433;-80
2024/02/07 10:15:45;;;;;;;1.40;0.77;;;;;;;-141.50;100.00;63355.56;5097038;28;20051;-81
2024/02/07 10:18:11;;;;;;;2.35;1.23;;;;;;;-141.50;100.00;63355.56;5090237;28;20059;-82
2024/02/07 10:20:39;;;;;;;1.77;1.02;;;;;;;-141.50;100.00;63355.56;5057905;28;20372;-80
2024/02/07 10:23:09;;;;;;;2.78;1.25;;;;;;;-141.50;100.00;63355.56;5075076;28;20060;-81
2024/02/07 10:25:36;;;;;;;1.85;1.10;;;;;;;-141.50;100.00;63355.56;5089601;28;20047;-81
2024/02/07 10:28:06;;;;;;;1.95;1.10;;;;;;;-141.50;100.00;63355.56;5083580;28;20070;-80
2024/02/07 10:30:33;;;;;;;3.42;1.00;;;;;;;-141.50;100.00;63355.56;5113654;28;20044;-81
2024/02/07 10:32:59;;;;;;;2.15;1.17;;;;;;;-141.50;100.00;63355.56;5119156;28;20069;-80
2024/02/07 10:35:26;;;;;;;3.38;1.00;;;;;;;-141.50;100.00;63355.56;5118215;28;20051;-80
2024/02/07 10:37:55;;;;;;;2.10;1.20;;;;;;;-141.50;100.00;63355.56;5120037;28;20051;-80
2024/02/07 10:40:22;;;;;;;1.15;0.85;;;;;;;-141.50;100.00;63355.56;5115935;28;20059;-80
2024/02/07 10:42:55;;;;;;;2.55;1.10;;;;;;;-141.50;100.00;63355.56;5115152;28;20066;-79
2024/02/07 10:45:22;;;;;;;3.92;1.30;;;;;;;-141.50;100.00;63355.56;5085197;28;20528;-80
2024/02/07 10:47:53;;;;;;;3.17;1.15;;;;;;;-141.50;100.00;63355.56;5106891;28;20040;-80
2024/02/07 10:50:23;;;;;;;2.17;1.13;;;;;;;-141.50;100.00;63355.56;5122055;28;20059;-79
2024/02/07 10:52:50;;;;;;;1.95;1.10;;;;;;;-141.50;100.00;63355.56;5103555;28;20036;-79
2024/02/07 10:55:21;;;;;;;3.13;1.20;;;;;;;-141.50;100.00;63355.56;5123994;28;20077;-78
2024/02/07 10:57:52;;;;;;;1.90;1.15;;;;;;;-141.50;100.00;63355.56;5122936;28;20047;-80
2024/02/07 11:00:20;;;;;;;1.73;1.00;;;;;;;-141.50;100.00;63355.56;5124107;28;20066;-80
2024/02/07 11:02:50;;;;;;;1.08;0.90;;;;;;;-141.50;100.00;63355.56;5121987;28;20055;-80
2024/02/07 11:05:20;;;;;;;4.85;1.30;;;;;;;-141.50;100.00;63355.56;5101583;28;20086;-80
2024/02/07 11:07:49;;;;;;;2.88;0.70;;;;;;;-141.50;100.00;63355.56;5104521;28;20147;-80
2024/02/07 11:10:16;;;;;;;2.70;0.80;;;;;;;-141.50;100.00;63355.56;5121036;28;20059;-81
2024/02/07 11:12:43;;;;;;;3.78;0.73;;;;;;;-141.50;100.00;63355.56;5096806;28;20062;-80
2024/02/07 11:15:10;;;;;;;1.70;0.80;;;;;;;-141.50;100.00;63355.56;5094820;28;20061;-80
2024/02/07 11:17:38;;;;;;;3.13;0.90;;;;;;;-141.50;100.00;63355.56;5121450;28;20230;-81
2024/02/07 11:20:07;;;;;;;1.42;0.60;;;;;;;-141.50;100.00;63355.56;5117931;28;20386;-79
2024/02/07 11:22:48;;;;;;;2.22;0.77;;;;;;;-141.50;100.00;63355.56;5110530;28;20048;-79
2024/02/07 11:25:21;;;;;;;1.52;0.63;;;;;;;-141.50;100.00;63355.56;5120387;28;20120;-81
2024/02/07 11:27:51;;;;;;;1.48;0.70;;;;;;;-141.50;100.00;63355.56;5118096;28;20058;-81
2024/02/07 11:30:20;;;;;;;1.17;0.73;;;;;;;-141.50;100.00;63355.56;5114839;28;20055;-81
2024/02/07 11:32:50;;;;;;;4.50;0.88;;;;;;;-141.50;100.00;63355.56;5099377;28;20071;-80
2024/02/07 11:35:21;;;;;;;2.28;0.85;;;;;;;-141.50;100.00;63355.56;5115713;28;20313;-80
2024/02/07 11:37:49;;;;;;;1.75;1.15;;;;;;;-141.50;100.00;63355.56;5117109;27;20055;-80
2024/02/07 11:40:18;;;;;;;5.00;1.20;;;;;;;-141.50;100.00;63355.56;5112569;28;20060;-80
2024/02/07 11:42:45;;;;;;;4.53;1.30;;;;;;;-141.50;100.00;63355.56;5093401;28;20090;-78
2024/02/07 11:45:13;;;;;;;3.55;1.27;;;;;;;-141.50;100.00;63355.56;5115952;27;20060;-80
2024/02/07 11:47:42;;;;;;;3.58;1.40;;;;;;;-141.50;100.00;63355.56;5092384;28;20051;-79
2024/02/07 11:50:14;;;;;;;3.80;1.40;;;;;;;-141.50;100.00;63355.56;5115022;27;20052;-80
2024/02/07 11:52:45;;;;;;;2.92;1.10;;;;;;;-141.50;100.00;63355.56;5077536;28;20055;-80
2024/02/07 11:55:16;;;;;;;1.40;0.93;;;;;;;-141.50;100.00;63355.56;5108993;28;20135;-79
2024/02/07 11:57:51;;;;;;;1.48;0.80;;;;;;;-141.50;100.00;63355.56;5088302;28;20659;-80
2024/02/07 12:00:21;;;;;;;4.65;1.00;;;;;;;-141.50;100.00;63355.56;5089955;28;20134;-79
2024/02/07 12:02:51;;;;;;;1.00;0.77;;;;;;;-141.50;100.00;63355.56;5110363;28;20112;-80
2024/02/07 12:05:19;;;;;;;2.28;0.82;;;;;;;-141.50;100.00;63355.56;5087936;28;20120;-79
2024/02/07 12:07:49;;;;;;;5.65;1.00;;;;;;;-141.50;100.00;63355.56;5086709;28;20130;-80
2024/02/07 12:10:26;;;;;;;1.98;1.00;;;;;;;-141.50;100.00;63355.56;5102388;28;20059;-79
2024/02/07 12:12:54;;;;;;;4.68;1.15;;;;;;;-141.50;100.00;63355.56;5092254;28;20039;-78
2024/02/07 12:15:24;;;;;;;3.85;0.98;;;;;;;-141.50;100.00;63355.56;5108757;28;20602;-78
2024/02/07 12:17:51;;;;;;;2.58;0.90;;;;;;;-141.50;100.00;63355.56;5116380;28;20051;-79
2024/02/07 12:20:18;;;;;;;2.60;0.98;;;;;;;-141.50;100.00;63355.56;5117400;28;20100;-80